| time (UTC) | temp C | wind direction | speed KPH | gust KPH | rain 1hr cm | rain 24hr cm | rain mn cm | humidity % | barometer mb |
| 20260906154542 | 22 | 138 | 8.0 | 14.5 | 0.00 | 0.00 | 0.00 | 80 | 1021.7 |
| 20260906153057 | 22 | 95 | 6.4 | 12.9 | 0.00 | 0.00 | 0.00 | 80 | 1021.7 |
| 20260906151542 | 22 | 186 | 4.8 | 11.3 | 0.00 | 0.00 | 0.00 | 81 | 1021.7 |
| 20260906150040 | 21 | 169 | 6.4 | 12.9 | 0.00 | 0.00 | 0.00 | 84 | 1021.7 |
| 20260906144548 | 21 | 146 | 6.4 | 12.9 | 0.00 | 0.00 | 0.00 | 86 | 1021.6 |
| 20260906143039 | 21 | 144 | 6.4 | 11.3 | 0.00 | 0.00 | 0.00 | 89 | 1021.5 |
| 20260906141543 | 20 | 147 | 6.4 | 9.7 | 0.00 | 0.00 | 0.00 | 90 | 1021.6 |
| 20260906140048 | 20 | 110 | 1.6 | 8.0 | 0.00 | 0.00 | 0.00 | 93 | 1021.6 |
| 20260906134543 | 18 | 71 | 3.2 | 8.0 | 0.00 | 0.00 | 0.00 | 94 | 1021.7 |
| 20260906133051 | 18 | 82 | 1.6 | 6.4 | 0.00 | 0.00 | 0.00 | 94 | 1021.7 |
| 20260906131538 | 18 | 113 | 1.6 | 8.0 | 0.00 | 0.00 | 0.00 | 95 | 1021.6 |
| 20260906130040 | 17 | 60 | 1.6 | 9.7 | 0.00 | 0.00 | 0.00 | 94 | 1021.4 |
| 20260906124540 | 17 | 61 | 1.6 | 8.0 | 0.00 | 0.00 | 0.00 | 95 | 1021.4 |
| 20260906123045 | 17 | 59 | 1.6 | 6.4 | 0.00 | 0.00 | 0.00 | 95 | 1021.4 |
| 20260906121545 | 17 | 73 | 3.2 | 6.4 | 0.00 | 0.00 | 0.00 | 95 | 1021.3 |
| 20260906120039 | 16 | 38 | 1.6 | 4.8 | 0.00 | 0.00 | 0.00 | 96 | 1021.1 |
| 20260906114540 | 16 | 70 | 0.0 | 4.8 | 0.00 | 0.00 | 0.00 | 96 | 1020.7 |
| 20260906113038 | 16 | 43 | 1.6 | 6.4 | 0.00 | 0.00 | 0.00 | 96 | 1020.6 |
| 20260906111548 | 15 | 60 | 0.0 | 1.6 | 0.00 | 0.00 | 0.00 | 95 | 1020.1 |
| 20260906110041 | 16 | 0 | 0.0 | 1.6 | 0.00 | 0.00 | 0.00 | 95 | 1020.3 |
| 20260906104540 | 16 | 60 | 0.0 | 4.8 | 0.00 | 0.00 | 0.00 | 95 | 1020.2 |
| 20260906103039 | 16 | 60 | 1.6 | 6.4 | 0.00 | 0.00 | 0.00 | 94 | 1020.3 |
| 20260906101538 | 16 | 64 | 3.2 | 6.4 | 0.00 | 0.00 | 0.00 | 94 | 1020.1 |
| 20260906100042 | 16 | 18 | 4.8 | 8.0 | 0.00 | 0.00 | 0.00 | 95 | 1020.2 |
| 20260906094541 | 16 | 48 | 1.6 | 4.8 | 0.00 | 0.00 | 0.00 | 95 | 1020.2 |
| 20260906093048 | 16 | 35 | 1.6 | 4.8 | 0.00 | 0.00 | 0.00 | 95 | 1020.2 |
| 20260906091542 | 15 | 37 | 0.0 | 3.2 | 0.00 | 0.00 | 0.00 | 95 | 1020.0 |
| 20260906090040 | 15 | 37 | 0.0 | 1.6 | 0.00 | 0.00 | 0.00 | 94 | 1020.0 |
| 20260906084548 | 16 | 0 | 0.0 | 4.8 | 0.00 | 0.00 | 0.00 | 95 | 1020.1 |
| 20260906083043 | 15 | 4 | 1.6 | 4.8 | 0.00 | 0.00 | 0.00 | 96 | 1020.1 |
| 20260906081550 | 15 | 28 | 1.6 | 3.2 | 0.00 | 0.00 | 0.00 | 96 | 1020.0 |
| 20260906080040 | 15 | 0 | 0.0 | 0.0 | 0.00 | 0.00 | 0.00 | 95 | 1020.0 |
| 20260906074546 | 15 | 0 | 0.0 | 1.6 | 0.00 | 0.00 | 0.00 | 95 | 1020.1 |
| 20260906073051 | 15 | 0 | 0.0 | 0.0 | 0.00 | 0.00 | 0.00 | 95 | 1020.1 |
| 20260906071540 | 15 | 0 | 3.2 | 4.8 | 0.00 | 0.00 | 0.00 | 96 | 1020.1 |
| 20260906070053 | 15 | 0 | 0.0 | 1.6 | 0.00 | 0.00 | 0.00 | 96 | 1019.8 |
| 20260906064540 | 15 | 0 | 0.0 | 1.6 | 0.00 | 0.00 | 0.00 | 95 | 1019.7 |
| 20260906063041 | 14 | 0 | 0.0 | 1.6 | 0.00 | 0.00 | 0.00 | 94 | 1019.7 |
| 20260906061549 | 13 | 0 | 0.0 | 0.0 | 0.00 | 0.00 | 0.00 | 92 | 1019.7 |
| 20260906060043 | 14 | 0 | 0.0 | 0.0 | 0.00 | 0.00 | 0.00 | 92 | 1019.7 |
| 20260906054541 | 15 | 0 | 0.0 | 0.0 | 0.00 | 0.00 | 0.00 | 92 | 1019.9 |
| 20260906053041 | 15 | 0 | 0.0 | 1.6 | 0.00 | 0.00 | 0.00 | 92 | 1019.8 |
| 20260906051536 | 15 | 346 | 0.0 | 1.6 | 0.00 | 0.00 | 0.00 | 92 | 1019.7 |
| 20260906050104 | 15 | 0 | 0.0 | 1.6 | 0.00 | 0.00 | 0.00 | 89 | 1019.3 |
| 20260906044541 | 16 | 111 | 0.0 | 1.6 | 0.00 | 0.00 | 0.00 | 90 | 1019.1 |
| 20260906043055 | 16 | 111 | 0.0 | 1.6 | 0.00 | 0.00 | 0.00 | 90 | 1019.0 |
| 20260906041542 | 17 | 111 | 1.6 | 3.2 | 0.00 | 0.00 | 0.00 | 89 | 1018.9 |
| 20260906040104 | 17 | 0 | 0.0 | 3.2 | 0.00 | 0.00 | 0.00 | 88 | 1019.1 |
| 20260906034539 | 17 | 111 | 0.0 | 1.6 | 0.00 | 0.00 | 0.00 | 87 | 1018.7 |
| 20260906033037 | 17 | 111 | 0.0 | 3.2 | 0.00 | 0.00 | 0.00 | 87 | 1018.8 |
| 20260906031543 | 17 | 111 | 0.0 | 3.2 | 0.00 | 0.00 | 0.00 | 86 | 1018.7 |
| 20260906030041 | 17 | 110 | 1.6 | 3.2 | 0.00 | 0.00 | 0.00 | 86 | 1018.6 |
| 20260906024542 | 18 | 110 | 0.0 | 4.8 | 0.00 | 0.00 | 0.00 | 87 | 1018.6 |
| 20260906023054 | 18 | 110 | 3.2 | 6.4 | 0.00 | 0.00 | 0.00 | 89 | 1018.6 |
| 20260906021542 | 19 | 118 | 0.0 | 3.2 | 0.00 | 0.00 | 0.00 | 90 | 1018.6 |
| 20260906020042 | 19 | 75 | 1.6 | 9.7 | 0.00 | 0.00 | 0.00 | 91 | 1018.4 |
| 20260906014555 | 19 | 0 | 0.0 | 3.2 | 0.00 | 0.00 | 0.00 | 91 | 1018.3 |
| 20260906013040 | 19 | 66 | 1.6 | 3.2 | 0.00 | 0.00 | 0.00 | 91 | 1018.2 |
| 20260906011553 | 19 | 68 | 0.0 | 3.2 | 0.00 | 0.00 | 0.00 | 92 | 1018.2 |
| 20260906010044 | 19 | 0 | 0.0 | 0.0 | 0.00 | 0.00 | 0.00 | 90 | 1017.9 |
| 20260906004542 | 20 | 0 | 0.0 | 0.0 | 0.00 | 0.00 | 0.00 | 88 | 1017.9 |
| 20260906003041 | 20 | 0 | 0.0 | 3.2 | 0.00 | 0.00 | 0.00 | 87 | 1018.0 |
| 20260906001541 | 21 | 85 | 1.6 | 3.2 | 0.00 | 0.00 | 0.00 | 86 | 1017.9 |
| 20260906000043 | 21 | 89 | 1.6 | 4.8 | 0.00 | 0.00 | 0.00 | 86 | 1018.2 |
| 20260905234552 | 22 | 55 | 1.6 | 6.4 | 0.00 | 0.00 | 0.00 | 86 | 1018.3 |
| 20260905233043 | 22 | 76 | 1.6 | 6.4 | 0.00 | 0.00 | 0.00 | 85 | 1018.3 |
| 20260905231543 | 22 | 108 | 3.2 | 8.0 | 0.00 | 0.00 | 0.00 | 84 | 1018.2 |
| 20260905230044 | 22 | 112 | 1.6 | 6.4 | 0.00 | 0.00 | 0.00 | 83 | 1018.2 |
| 20260905224539 | 23 | 114 | 3.2 | 11.3 | 0.00 | 0.00 | 0.00 | 81 | 1018.0 |
| 20260905223041 | 23 | 46 | 0.0 | 3.2 | 0.00 | 0.00 | 0.00 | 82 | 1017.9 |
| 20260905220043 | 22 | 66 | 4.8 | 11.3 | 0.00 | 0.00 | 0.00 | 84 | 1017.7 |
| 20260905214541 | 22 | 51 | 6.4 | 12.9 | 0.00 | 0.00 | 0.00 | 83 | 1017.8 |
| 20260905213043 | 22 | 68 | 4.8 | 9.7 | 0.00 | 0.00 | 0.00 | 84 | 1017.8 |
| 20260905211537 | 22 | 34 | 8.0 | 17.7 | 0.00 | 0.00 | 0.00 | 84 | 1018.0 |
| 20260905210042 | 23 | 49 | 11.3 | 17.7 | 0.00 | 0.00 | 0.00 | 84 | 1017.9 |
| 20260905204539 | 22 | 18 | 6.4 | 16.1 | 0.00 | 0.00 | 0.00 | 85 | 1018.0 |
| 20260905203037 | 22 | 37 | 9.7 | 12.9 | 0.00 | 0.00 | 0.00 | 85 | 1018.0 |
| 20260905201543 | 22 | 29 | 8.0 | 12.9 | 0.00 | 0.00 | 0.00 | 85 | 1018.1 |
| 20260905200045 | 22 | 24 | 4.8 | 14.5 | 0.00 | 0.00 | 0.00 | 87 | 1018.0 |
| 20260905194541 | 22 | 8 | 6.4 | 11.3 | 0.00 | 0.00 | 0.00 | 87 | 1018.0 |
| 20260905193045 | 22 | 352 | 8.0 | 14.5 | 0.00 | 0.00 | 0.00 | 87 | 1018.0 |
| 20260905191546 | 22 | 34 | 6.4 | 11.3 | 0.00 | 0.00 | 0.00 | 88 | 1018.0 |
| 20260905190049 | 22 | 37 | 8.0 | 12.9 | 0.00 | 0.00 | 0.00 | 86 | 1018.1 |
| 20260905184555 | 22 | 36 | 3.2 | 9.7 | 0.00 | 0.00 | 0.00 | 85 | 1018.0 |
| 20260905183043 | 22 | 41 | 4.8 | 8.0 | 0.00 | 0.00 | 0.00 | 87 | 1018.1 |
| 20260905181544 | 22 | 63 | 3.2 | 8.0 | 0.00 | 0.00 | 0.00 | 88 | 1018.4 |
| 20260905180042 | 22 | 49 | 4.8 | 11.3 | 0.00 | 0.00 | 0.00 | 87 | 1018.5 |
| 20260905174541 | 22 | 41 | 6.4 | 14.5 | 0.00 | 0.00 | 0.00 | 88 | 1018.4 |
| 20260905173041 | 22 | 79 | 4.8 | 16.1 | 0.00 | 0.00 | 0.00 | 89 | 1018.4 |
| 20260905171541 | 22 | 39 | 8.0 | 14.5 | 0.00 | 0.00 | 0.00 | 89 | 1018.2 |
| 20260905170041 | 22 | 48 | 6.4 | 14.5 | 0.00 | 0.00 | 0.00 | 90 | 1018.0 |
| 20260905164543 | 22 | 76 | 9.7 | 14.5 | 0.00 | 0.00 | 0.00 | 88 | 1018.3 |
| 20260905163039 | 22 | 63 | 8.0 | 16.1 | 0.00 | 0.00 | 0.00 | 89 | 1018.3 |
| 20260905161544 | 21 | 11 | 6.4 | 12.9 | 0.00 | 0.00 | 0.00 | 91 | 1018.2 |
| 20260905160040 | 21 | 27 | 6.4 | 11.3 | 0.00 | 0.00 | 0.00 | 91 | 1018.4 |